createdAt,value
2018-06-02T00:02:14.109Z,17.90
2018-06-02T00:07:05.626Z,18.00
2018-06-02T00:11:57.146Z,18.10
2018-06-02T00:16:48.637Z,18.10
2018-06-02T00:21:40.907Z,18.00
2018-06-02T00:26:33.139Z,18.00
2018-06-02T00:31:25.395Z,18.10
2018-06-02T00:36:17.657Z,17.90
2018-06-02T00:41:09.909Z,17.90
2018-06-02T00:46:01.437Z,17.90
2018-06-02T00:50:52.975Z,17.80
2018-06-02T00:55:45.230Z,17.80
2018-06-02T01:00:36.764Z,17.80
2018-06-02T01:05:29.058Z,17.90
2018-06-02T01:10:20.621Z,17.80
2018-06-02T01:15:12.167Z,17.80
2018-06-02T01:20:04.428Z,17.90
2018-06-02T01:24:56.722Z,17.90
2018-06-02T01:29:48.334Z,17.80
2018-06-02T01:34:39.843Z,17.70
2018-06-02T01:39:32.087Z,17.80
2018-06-02T01:44:23.602Z,17.70
2018-06-02T01:49:15.093Z,17.90
2018-06-02T01:54:06.605Z,17.80
2018-06-02T01:59:02.016Z,17.80
2018-06-02T02:03:53.519Z,17.80
2018-06-02T02:08:45.053Z,17.80
2018-06-02T02:13:36.547Z,17.80
2018-06-02T02:18:28.037Z,17.80
2018-06-02T02:23:19.547Z,17.70
2018-06-02T02:28:11.053Z,17.60
2018-06-02T02:33:02.582Z,17.70
2018-06-02T02:37:54.089Z,17.70
2018-06-02T02:42:46.346Z,17.90
2018-06-02T02:47:38.593Z,17.80
2018-06-02T02:52:30.849Z,17.80
2018-06-02T02:57:23.113Z,17.70
2018-06-02T03:02:14.642Z,17.70
2018-06-02T03:07:07.183Z,17.80
2018-06-02T03:11:59.035Z,17.70
2018-06-02T03:16:51.748Z,17.70
2018-06-02T03:21:44.039Z,17.80
2018-06-02T03:26:36.310Z,17.80
2018-06-02T03:31:27.817Z,17.80
2018-06-02T03:36:19.304Z,17.90
2018-06-02T03:41:10.808Z,18.00
2018-06-02T03:46:03.077Z,17.80
2018-06-02T03:50:54.568Z,17.80
2018-06-02T03:55:46.102Z,17.80
2018-06-02T04:00:37.707Z,17.60
2018-06-02T04:05:29.211Z,17.60
2018-06-02T04:10:20.727Z,17.50
2018-06-02T04:15:13.006Z,17.50
2018-06-02T04:20:04.516Z,17.40
2018-06-02T04:24:57.544Z,17.50
2018-06-02T04:29:49.082Z,17.50
2018-06-02T04:34:40.608Z,17.50
2018-06-02T04:39:32.137Z,17.50
2018-06-02T04:44:23.655Z,17.50
2018-06-02T04:49:15.145Z,17.40
2018-06-02T04:54:07.414Z,17.20
2018-06-02T04:58:58.900Z,17.20
2018-06-02T05:03:50.421Z,17.20
2018-06-02T05:08:41.921Z,17.30
2018-06-02T05:13:33.417Z,17.40
2018-06-02T05:18:24.921Z,17.70
2018-06-02T05:23:16.444Z,17.80
2018-06-02T05:28:08.013Z,18.00
2018-06-02T05:32:59.512Z,18.20
2018-06-02T05:37:51.032Z,18.50
2018-06-02T05:42:42.531Z,18.60
2018-06-02T05:47:34.791Z,18.90
2018-06-02T05:52:27.039Z,19.00
2018-06-02T05:57:19.277Z,19.20
2018-06-02T06:02:11.611Z,19.30
2018-06-02T06:07:03.139Z,19.30
2018-06-02T06:11:54.650Z,19.40
2018-06-02T06:16:46.150Z,19.50
2018-06-02T06:21:38.401Z,19.70
2018-06-02T06:26:29.895Z,19.70
2018-06-02T06:31:21.417Z,20.10
2018-06-02T06:36:12.968Z,20.30
2018-06-02T06:41:04.488Z,20.70
2018-06-02T06:45:55.984Z,21.10
2018-06-02T06:50:47.544Z,21.40
2018-06-02T06:55:39.059Z,21.80
2018-06-02T07:00:30.587Z,22.30
2018-06-02T07:05:22.088Z,22.70
2018-06-02T07:10:14.380Z,23.50
2018-06-02T07:15:05.847Z,23.40
2018-06-02T07:19:57.355Z,24.10
2018-06-02T07:24:50.649Z,24.10
2018-06-02T07:29:42.957Z,24.80
2018-06-02T07:34:34.471Z,24.80
2018-06-02T07:39:26.835Z,25.30
2018-06-02T07:44:18.425Z,25.30
2018-06-02T07:49:09.938Z,26.00
2018-06-02T07:54:01.454Z,25.60
2018-06-02T07:58:52.992Z,25.80
2018-06-02T08:03:44.509Z,26.50
2018-06-02T08:08:36.101Z,25.60
2018-06-02T08:13:27.581Z,24.60
2018-06-02T08:18:19.085Z,24.10
2018-06-02T08:23:11.354Z,24.90
2018-06-02T08:28:03.620Z,24.80
2018-06-02T08:32:55.178Z,24.80
2018-06-02T08:37:46.696Z,24.90
2018-06-02T08:42:39.523Z,26.80
2018-06-02T08:47:31.075Z,26.70
2018-06-02T08:52:23.352Z,31.50
2018-06-02T08:57:14.867Z,31.40
2018-06-02T09:02:06.355Z,32.30
2018-06-02T09:12:03.648Z,34.50
2018-06-02T09:16:55.175Z,34.80
2018-06-02T09:21:46.739Z,34.10
2018-06-02T09:26:38.215Z,31.60
2018-06-02T09:31:29.722Z,30.90
2018-06-02T09:36:22.015Z,30.20
2018-06-02T09:41:13.521Z,30.10
2018-06-02T09:46:05.773Z,30.40
2018-06-02T09:50:58.018Z,29.40
2018-06-02T09:55:50.308Z,29.90
2018-06-02T10:00:41.848Z,29.80
2018-06-02T10:05:33.350Z,31.40
2018-06-02T10:10:24.965Z,30.00
2018-06-02T10:15:17.205Z,30.20
2018-06-02T10:20:09.476Z,29.80
2018-06-02T10:25:02.811Z,29.30
2018-06-02T10:29:54.338Z,29.30
2018-06-02T10:34:46.623Z,28.20
2018-06-02T10:39:38.954Z,27.80
2018-06-02T10:44:30.499Z,27.70
2018-06-02T10:49:22.123Z,27.40
2018-06-02T10:54:13.633Z,27.20
2018-06-02T10:59:05.135Z,27.70
2018-06-02T11:03:56.629Z,28.00
2018-06-02T11:08:48.255Z,28.20
2018-06-02T11:13:39.755Z,28.30
2018-06-02T11:18:31.254Z,28.30
2018-06-02T11:23:22.779Z,28.10
2018-06-02T11:28:14.391Z,28.20
2018-06-02T11:33:05.916Z,28.40
2018-06-02T11:37:57.434Z,28.80
2018-06-02T11:42:48.929Z,28.60
2018-06-02T11:47:41.191Z,28.80
2018-06-02T11:52:34.232Z,29.00
2018-06-02T11:57:25.734Z,28.90
2018-06-02T12:02:17.252Z,29.00
2018-06-02T12:07:08.751Z,28.70
2018-06-02T12:12:00.977Z,28.00
2018-06-02T12:16:52.467Z,28.00
2018-06-02T12:21:43.973Z,27.90
2018-06-02T12:26:36.263Z,27.40
2018-06-02T12:31:27.763Z,27.40
2018-06-02T12:36:20.006Z,27.60
2018-06-02T12:41:12.275Z,27.60
2018-06-02T12:46:03.848Z,27.50
2018-06-02T12:50:55.407Z,27.50
2018-06-02T12:55:46.913Z,27.70
2018-06-02T13:00:38.403Z,27.70
2018-06-02T13:05:30.661Z,27.70
2018-06-02T13:10:22.245Z,27.70
2018-06-02T13:15:13.771Z,27.90
2018-06-02T13:20:05.298Z,28.70
2018-06-02T13:24:57.895Z,28.90
2018-06-02T13:29:50.733Z,28.60
2018-06-02T13:34:42.238Z,28.50
2018-06-02T13:39:33.880Z,28.10
2018-06-02T13:44:25.861Z,27.70
2018-06-02T13:49:18.444Z,27.60
2018-06-02T13:54:10.714Z,27.80
2018-06-02T13:59:02.366Z,27.80
2018-06-02T14:03:54.198Z,27.40
2018-06-02T14:08:46.108Z,27.60
2018-06-02T14:13:37.777Z,27.70
2018-06-02T14:18:29.359Z,28.10
2018-06-02T14:23:20.919Z,28.40
2018-06-02T14:28:13.258Z,28.40
2018-06-02T14:33:04.789Z,28.30
2018-06-02T14:37:57.131Z,27.70
2018-06-02T14:42:48.650Z,27.70
2018-06-02T14:47:40.161Z,27.90
2018-06-02T14:52:31.681Z,27.30
2018-06-02T14:57:23.217Z,26.90
2018-06-02T15:02:14.722Z,27.40
2018-06-02T15:07:06.224Z,27.50
2018-06-02T15:11:57.741Z,27.80
2018-06-02T15:16:49.313Z,27.90
2018-06-02T15:21:40.806Z,27.70
2018-06-02T15:26:32.320Z,27.10
2018-06-02T15:31:23.884Z,27.20
2018-06-02T15:36:15.401Z,27.20
2018-06-02T15:41:06.913Z,27.30
2018-06-02T15:45:59.164Z,26.60
2018-06-02T15:50:51.432Z,26.60
2018-06-02T15:55:43.028Z,26.60
2018-06-02T16:00:34.566Z,26.40
2018-06-02T16:05:26.096Z,26.20
2018-06-02T16:10:17.628Z,26.40
2018-06-02T16:15:09.228Z,26.00
2018-06-02T16:20:00.759Z,25.80
2018-06-02T16:24:52.269Z,25.20
2018-06-02T16:29:43.781Z,24.80
2018-06-02T16:34:36.052Z,24.90
2018-06-02T16:39:28.934Z,25.10
2018-06-02T16:44:20.459Z,25.00
2018-06-02T16:49:11.984Z,25.00
2018-06-02T16:54:04.273Z,24.90
2018-06-02T17:03:53.895Z,24.80
2018-06-02T17:08:45.408Z,24.60
2018-06-02T17:13:36.947Z,24.40
2018-06-02T17:18:28.440Z,24.30
2018-06-02T17:23:20.671Z,24.00
2018-06-02T17:28:12.214Z,23.90
2018-06-02T17:33:03.803Z,24.00
2018-06-02T17:37:55.287Z,23.80
2018-06-02T17:42:46.799Z,23.80
2018-06-02T17:47:38.337Z,23.60
2018-06-02T17:52:29.971Z,23.50
2018-06-02T17:57:21.882Z,23.40
2018-06-02T18:02:13.432Z,23.30
2018-06-02T18:07:04.997Z,23.20
2018-06-02T18:11:58.265Z,22.90
2018-06-02T18:16:49.791Z,22.90
2018-06-02T18:21:41.309Z,22.90
2018-06-02T18:26:32.953Z,22.60
2018-06-02T18:31:24.476Z,22.60
2018-06-02T18:36:15.981Z,22.60
2018-06-02T18:41:07.576Z,22.50
2018-06-02T18:45:59.067Z,22.40
2018-06-02T18:50:50.597Z,22.30
2018-06-02T18:55:42.099Z,22.00
2018-06-02T19:00:34.351Z,21.80
2018-06-02T19:05:25.913Z,21.80
2018-06-02T19:10:17.421Z,21.70
2018-06-02T19:15:10.630Z,21.70
2018-06-02T19:20:02.193Z,21.60
2018-06-02T19:24:54.427Z,21.50
2018-06-02T19:29:45.941Z,21.40
2018-06-02T19:34:37.452Z,21.30
2018-06-02T19:39:29.767Z,20.90
2018-06-02T19:44:21.281Z,20.80
2018-06-02T19:49:12.832Z,20.90
2018-06-02T19:54:04.351Z,20.90
2018-06-02T19:58:55.836Z,20.70
2018-06-02T20:03:48.097Z,20.50
2018-06-02T20:08:40.397Z,20.40
2018-06-02T20:13:32.933Z,20.30
2018-06-02T20:18:24.456Z,20.30
2018-06-02T20:23:15.982Z,20.10
2018-06-02T20:28:07.492Z,19.90
2018-06-02T20:32:59.739Z,19.70
2018-06-02T20:37:51.244Z,19.60
2018-06-02T20:42:42.773Z,19.70
2018-06-02T20:47:34.282Z,19.70
2018-06-02T20:52:25.798Z,19.70
2018-06-02T20:57:18.046Z,19.60
2018-06-02T21:02:10.298Z,19.40
2018-06-02T21:07:02.584Z,19.40
2018-06-02T21:11:54.137Z,19.40
2018-06-02T21:16:45.654Z,19.30
2018-06-02T21:21:37.166Z,19.30
2018-06-02T21:26:28.673Z,19.30
2018-06-02T21:31:20.932Z,19.10
2018-06-02T21:36:13.200Z,19.10
2018-06-02T21:41:04.719Z,19.10
2018-06-02T21:45:56.977Z,19.20
2018-06-02T21:50:48.466Z,19.20
2018-06-02T21:55:40.016Z,19.30
2018-06-02T22:00:32.300Z,19.20
2018-06-02T22:05:23.850Z,19.20
2018-06-02T22:10:15.377Z,19.20
2018-06-02T22:15:06.910Z,19.20
2018-06-02T22:19:58.426Z,19.10
2018-06-02T22:24:50.677Z,19.10
2018-06-02T22:29:42.945Z,19.00
2018-06-02T22:34:34.515Z,18.90
2018-06-02T22:39:26.061Z,18.90
2018-06-02T22:44:17.617Z,18.90
2018-06-02T22:49:09.884Z,18.90
2018-06-02T22:54:02.221Z,18.90
2018-06-02T22:58:54.543Z,18.90
2018-06-02T23:03:46.123Z,18.80
2018-06-02T23:08:38.400Z,18.80
2018-06-02T23:13:29.909Z,18.70
2018-06-02T23:18:22.158Z,18.60
2018-06-02T23:23:13.629Z,18.50
2018-06-02T23:28:05.146Z,18.50
2018-06-02T23:32:56.671Z,18.50
2018-06-02T23:37:48.197Z,18.60
2018-06-02T23:42:40.427Z,18.50
2018-06-02T23:47:32.013Z,18.40
2018-06-02T23:52:23.551Z,18.50
2018-06-02T23:57:15.071Z,18.60
